Aviation Digital Data Service (ADDS)

Output produced by METARs form (1209 UTC 24 June 2017)
found at http://aviationweather.gov/adds/metars/
 
METAR text: EDMA 241150Z 24012KT 210V300 9999 FEW044 26/15 Q1018
Conditions at: EDMA (AUGSBURG/MULHAUS, DE) observed 1150 UTC 24 June 2017
Temperature: 26.0°C (79°F)
Dewpoint: 15.0°C (59°F) [RH = 51%]
Pressure (altimeter): 30.06 inches Hg (1018.0 mb)
Winds: from the WSW (240 degrees) at 14 MPH (12 knots; 6.2 m/s)
Visibility: 6 or more miles (10+ km)
Ceiling: at least 12,000 feet AGL
Clouds: few clouds at 4400 feet AGL
Weather: no significant weather observed at this time

Forecast for: EDMA (AUGSBURG/MULHAUS, DE)
Text: TAF EDMA 241100Z 2412/2421 27010KT CAVOK
Forecast period: 1200 to 1800 UTC 24 June 2017
Forecast type: FROM: standard forecast or significant change
Winds: from the W (270 degrees) at 12 MPH (10 knots; 5.2 m/s)
Visibility: 6 or more miles (10+ km)
Clouds: not forecast
Weather: NSW  (no significant weather)
Text: BECMG 2418/2420 VRB03KT
Forecast period: 1800 to 2100 UTC 24 June 2017
Forecast type: BECOMING: Conditions expected to become as follows by 2000 UTC 24 June 2017
Winds: variable direction winds at 3 MPH (3 knots; 1.6 m/s)
Visibility: 6 or more miles (10+ km)
Weather: NSW  (no significant weather)